createdAt,value
2023-02-01T00:01:41.121Z,5.33
2023-02-01T00:04:09.455Z,5.35
2023-02-01T00:06:38.058Z,5.34
2023-02-01T00:09:06.772Z,5.32
2023-02-01T00:11:36.540Z,5.32
2023-02-01T00:14:05.000Z,5.33
2023-02-01T00:16:33.636Z,5.31
2023-02-01T00:19:14.078Z,5.31
2023-02-01T00:21:42.741Z,5.31
2023-02-01T00:24:12.485Z,5.30
2023-02-01T00:26:44.129Z,5.27
2023-02-01T00:29:15.250Z,5.28
2023-02-01T00:31:43.997Z,5.27
2023-02-01T00:34:14.475Z,5.27
2023-02-01T00:36:43.933Z,5.28
2023-02-01T00:39:12.960Z,5.29
2023-02-01T00:41:42.699Z,5.30
2023-02-01T00:44:11.451Z,5.31
2023-02-01T00:46:40.025Z,5.31
2023-02-01T00:49:10.056Z,5.30
2023-02-01T00:51:38.482Z,5.28
2023-02-01T00:54:06.954Z,5.28
2023-02-01T00:56:35.319Z,5.25
2023-02-01T00:59:05.054Z,5.24
2023-02-01T01:01:33.401Z,5.22
2023-02-01T01:04:02.505Z,5.22
2023-02-01T01:06:33.670Z,5.21
2023-02-01T01:09:04.982Z,5.23
2023-02-01T01:11:34.735Z,5.22
2023-02-01T01:14:03.095Z,5.20
2023-02-01T01:16:34.262Z,5.20
2023-02-01T01:19:03.031Z,5.19
2023-02-01T01:21:32.028Z,5.18
2023-02-01T01:24:00.652Z,5.17
2023-02-01T01:26:31.147Z,5.17
2023-02-01T01:29:01.134Z,5.15
2023-02-01T01:31:30.524Z,5.15
2023-02-01T01:34:02.219Z,5.14
2023-02-01T01:36:31.337Z,5.11
2023-02-01T01:38:59.731Z,5.10
2023-02-01T01:41:32.115Z,5.12
2023-02-01T01:44:01.833Z,5.11
2023-02-01T01:46:32.188Z,5.09
2023-02-01T01:49:08.525Z,5.10
2023-02-01T01:51:42.585Z,5.07
2023-02-01T01:54:18.147Z,5.07
2023-02-01T01:56:50.999Z,5.09
2023-02-01T01:59:20.165Z,5.09
2023-02-01T02:01:48.999Z,5.11
2023-02-01T02:04:19.164Z,5.11
2023-02-01T02:06:52.184Z,5.13
2023-02-01T02:09:20.967Z,5.12
2023-02-01T02:11:50.270Z,5.11
2023-02-01T02:14:21.202Z,5.11
2023-02-01T02:17:00.641Z,5.12
2023-02-01T02:19:59.148Z,5.10
2023-02-01T02:22:52.189Z,5.07
2023-02-01T02:25:41.365Z,5.07
2023-02-01T02:28:26.916Z,5.05
2023-02-01T02:31:14.347Z,5.04
2023-02-01T02:34:05.918Z,5.01
2023-02-01T02:36:42.015Z,4.98
2023-02-01T02:39:22.202Z,4.96
2023-02-01T02:42:18.804Z,4.97
2023-02-01T02:45:08.120Z,4.98
2023-02-01T02:47:47.535Z,4.97
2023-02-01T02:50:43.982Z,4.97
2023-02-01T02:53:34.889Z,4.97
2023-02-01T02:56:23.409Z,4.96
2023-02-01T02:59:09.752Z,4.95
2023-02-01T03:01:57.126Z,4.97
2023-02-01T03:04:26.554Z,4.93
2023-02-01T03:06:56.625Z,4.90
2023-02-01T03:09:29.322Z,4.89
2023-02-01T03:12:19.947Z,4.85
2023-02-01T03:14:54.425Z,4.84
2023-02-01T03:17:29.832Z,4.81
2023-02-01T03:20:03.296Z,4.81
2023-02-01T03:22:36.009Z,4.80
2023-02-01T03:25:07.942Z,4.81
2023-02-01T03:27:41.785Z,4.83
2023-02-01T03:30:13.879Z,4.85
2023-02-01T03:35:45.684Z,4.73
2023-02-01T03:38:22.090Z,4.65
2023-02-01T03:40:55.775Z,4.59
2023-02-01T03:43:27.152Z,4.50
2023-02-01T03:46:01.435Z,4.43
2023-02-01T03:48:31.404Z,4.31
2023-02-01T03:51:05.743Z,4.21
2023-02-01T03:53:38.085Z,4.14
2023-02-01T03:56:08.043Z,4.08
2023-02-01T03:58:36.439Z,4.02
2023-02-01T04:01:04.859Z,3.95
2023-02-01T04:03:33.302Z,3.93
2023-02-01T04:06:03.008Z,3.92
2023-02-01T04:08:31.422Z,3.90
2023-02-01T04:10:59.828Z,3.89
2023-02-01T04:13:28.582Z,3.90
2023-02-01T04:15:56.991Z,3.93
2023-02-01T04:18:25.328Z,3.93
2023-02-01T04:20:53.756Z,3.96
2023-02-01T04:23:23.506Z,3.96
2023-02-01T04:25:51.949Z,3.99
2023-02-01T04:28:20.254Z,4.02
2023-02-01T04:30:48.722Z,4.09
2023-02-01T04:33:17.096Z,4.12
2023-02-01T04:35:45.462Z,4.16
2023-02-01T04:38:13.821Z,4.19
2023-02-01T04:40:43.530Z,4.22
2023-02-01T04:43:11.852Z,4.27
2023-02-01T04:45:40.189Z,4.31
2023-02-01T04:48:19.591Z,4.36
2023-02-01T04:50:48.852Z,4.39
2023-02-01T04:53:17.572Z,4.41
2023-02-01T04:55:50.366Z,4.43
2023-02-01T04:58:18.745Z,4.44
2023-02-01T05:00:47.090Z,4.46
2023-02-01T05:03:15.556Z,4.47
2023-02-01T05:05:44.074Z,4.47
2023-02-01T05:08:12.653Z,4.46
2023-02-01T05:10:41.010Z,4.46
2023-02-01T05:13:29.778Z,4.46
2023-02-01T05:15:58.185Z,4.45
2023-02-01T05:18:26.632Z,4.43
2023-02-01T05:20:55.049Z,4.40
2023-02-01T05:23:23.442Z,4.40
2023-02-01T05:25:51.806Z,4.40
2023-02-01T05:28:21.592Z,4.39
2023-02-01T05:30:50.000Z,4.37
2023-02-01T05:33:18.495Z,4.37
2023-02-01T05:35:46.890Z,4.38
2023-02-01T05:38:15.215Z,4.40
2023-02-01T05:40:43.861Z,4.42
2023-02-01T05:43:12.140Z,4.44
2023-02-01T05:45:42.005Z,4.45
2023-02-01T05:48:10.373Z,4.46
2023-02-01T05:50:39.348Z,4.49
2023-02-01T05:53:07.944Z,4.50
2023-02-01T05:55:41.624Z,4.52
2023-02-01T05:58:10.307Z,4.56
2023-02-01T06:00:42.367Z,4.57
2023-02-01T06:03:11.052Z,4.56
2023-02-01T06:05:39.393Z,4.58
2023-02-01T06:08:09.991Z,4.64
2023-02-01T06:10:38.332Z,4.67
2023-02-01T06:13:06.840Z,4.69
2023-02-01T06:15:35.307Z,4.70
2023-02-01T06:18:05.548Z,4.73
2023-02-01T06:20:34.082Z,4.76
2023-02-01T06:23:02.467Z,4.78
2023-02-01T06:25:30.805Z,4.80
2023-02-01T06:28:02.567Z,4.81
2023-02-01T06:30:31.584Z,4.83
2023-02-01T06:33:00.101Z,4.87
2023-02-01T06:35:30.376Z,4.86
2023-02-01T06:37:59.216Z,4.88
2023-02-01T06:40:27.551Z,4.91
2023-02-01T06:42:55.917Z,4.95
2023-02-01T06:45:24.242Z,4.97
2023-02-01T06:47:52.915Z,4.97
2023-02-01T06:50:21.782Z,4.98
2023-02-01T06:52:51.560Z,4.97
2023-02-01T06:55:19.960Z,4.99
2023-02-01T06:57:55.528Z,5.02
2023-02-01T07:00:25.067Z,5.02
2023-02-01T07:02:53.607Z,5.01
2023-02-01T07:05:21.967Z,5.01
2023-02-01T07:07:51.823Z,5.01
2023-02-01T07:10:20.563Z,4.99
2023-02-01T07:12:49.039Z,5.01
2023-02-01T07:15:17.573Z,4.99
2023-02-01T07:17:47.754Z,4.99
2023-02-01T07:20:16.072Z,4.99
2023-02-01T07:22:44.478Z,5.00
2023-02-01T07:25:14.149Z,4.99
2023-02-01T07:27:42.525Z,5.00
2023-02-01T07:30:12.275Z,5.01
2023-02-01T07:32:40.635Z,5.01
2023-02-01T07:35:09.600Z,5.01
2023-02-01T07:37:46.916Z,5.01
2023-02-01T07:40:16.753Z,5.02
2023-02-01T07:42:45.126Z,5.03
2023-02-01T07:45:21.445Z,5.04
2023-02-01T07:47:50.330Z,5.03
2023-02-01T07:50:19.414Z,5.04
2023-02-01T07:52:48.620Z,5.04
2023-02-01T07:55:18.536Z,5.04
2023-02-01T07:57:46.972Z,5.03
2023-02-01T08:00:34.003Z,5.05
2023-02-01T08:03:06.613Z,5.05
2023-02-01T08:05:35.122Z,5.05
2023-02-01T08:08:03.471Z,5.05
2023-02-01T08:10:33.168Z,5.05
2023-02-01T08:13:02.182Z,5.05
2023-02-01T08:15:31.030Z,5.06
2023-02-01T08:17:59.527Z,5.05
2023-02-01T08:20:28.320Z,5.04
2023-02-01T08:22:56.996Z,5.05
2023-02-01T08:25:26.010Z,5.06
2023-02-01T08:27:55.954Z,5.07
2023-02-01T08:30:24.595Z,5.09
2023-02-01T08:32:53.318Z,5.08
2023-02-01T08:35:25.784Z,5.11
2023-02-01T08:37:58.824Z,5.12
2023-02-01T08:40:27.239Z,5.15
2023-02-01T08:42:56.956Z,5.18
2023-02-01T08:45:27.495Z,5.21
2023-02-01T08:47:56.087Z,5.23
2023-02-01T08:50:25.672Z,5.28
2023-02-01T08:52:54.718Z,5.34
2023-02-01T08:55:23.132Z,5.39
2023-02-01T08:57:51.486Z,5.40
2023-02-01T09:00:22.115Z,5.43
2023-02-01T09:02:50.670Z,5.45
2023-02-01T09:05:23.208Z,5.47
2023-02-01T09:07:51.685Z,5.49
2023-02-01T09:10:33.420Z,5.51
2023-02-01T09:13:04.111Z,5.54
2023-02-01T09:15:33.896Z,5.57
2023-02-01T09:18:02.415Z,5.61
2023-02-01T09:20:30.774Z,5.67
2023-02-01T09:22:59.312Z,5.71
2023-02-01T09:25:27.799Z,5.77
2023-02-01T09:27:56.201Z,5.81
2023-02-01T09:30:24.942Z,5.84
2023-02-01T09:32:54.940Z,5.86
2023-02-01T09:35:23.286Z,5.88
2023-02-01T09:37:51.671Z,5.88
2023-02-01T09:40:21.177Z,5.90
2023-02-01T09:43:07.985Z,5.90
2023-02-01T09:45:45.157Z,5.92
2023-02-01T09:48:18.711Z,5.95
2023-02-01T09:50:51.796Z,5.97
2023-02-01T09:53:25.476Z,6.01
2023-02-01T09:55:57.812Z,6.06
2023-02-01T09:58:32.815Z,6.10
2023-02-01T10:01:03.086Z,6.17
2023-02-01T10:03:36.575Z,6.24
2023-02-01T10:06:31.138Z,6.27
2023-02-01T10:09:17.851Z,6.34
2023-02-01T10:11:58.647Z,6.39
2023-02-01T10:14:53.376Z,6.41
2023-02-01T10:17:35.663Z,6.45
2023-02-01T10:20:16.793Z,6.46
2023-02-01T10:23:13.420Z,6.45
2023-02-01T10:25:44.405Z,6.44
2023-02-01T10:28:17.659Z,6.47
2023-02-01T10:30:49.125Z,6.48
2023-02-01T10:33:20.256Z,6.52
2023-02-01T10:35:54.314Z,6.55
2023-02-01T10:38:28.112Z,6.57
2023-02-01T10:41:03.104Z,6.57
2023-02-01T10:43:34.908Z,6.57
2023-02-01T10:46:03.394Z,6.59
2023-02-01T10:48:32.966Z,6.63
2023-02-01T10:51:07.930Z,6.65
2023-02-01T10:53:42.795Z,6.72
2023-02-01T10:56:12.259Z,6.74
2023-02-01T10:58:46.895Z,6.75
2023-02-01T11:01:21.323Z,6.78
2023-02-01T11:03:55.946Z,6.77
2023-02-01T11:06:30.022Z,6.76
2023-02-01T11:09:00.586Z,6.74
2023-02-01T11:11:30.198Z,6.72
2023-02-01T11:14:00.656Z,6.72
2023-02-01T11:16:36.545Z,6.74
2023-02-01T11:19:05.728Z,6.74
2023-02-01T11:21:37.852Z,6.74
2023-02-01T11:24:10.341Z,6.75
2023-02-01T11:26:43.488Z,6.76
2023-02-01T11:29:18.631Z,6.74
2023-02-01T11:31:48.046Z,6.76
2023-02-01T11:34:21.900Z,6.78
2023-02-01T11:36:54.046Z,6.75
2023-02-01T11:39:27.712Z,6.79
2023-02-01T11:42:07.865Z,6.80
2023-02-01T11:44:39.045Z,6.81
2023-02-01T11:47:25.558Z,6.81
2023-02-01T11:49:55.716Z,6.85
2023-02-01T11:52:44.365Z,6.86
2023-02-01T11:55:27.129Z,6.90
2023-02-01T11:58:07.907Z,6.93
2023-02-01T12:00:49.836Z,6.92
2023-02-01T12:03:45.206Z,6.90
2023-02-01T12:06:21.672Z,6.88
2023-02-01T12:09:15.160Z,6.91
2023-02-01T12:11:56.626Z,6.93
2023-02-01T12:14:43.469Z,6.92
2023-02-01T12:17:33.981Z,6.84
2023-02-01T12:20:19.924Z,6.87
2023-02-01T12:23:01.651Z,6.93
2023-02-01T12:25:43.377Z,6.94
2023-02-01T12:28:33.487Z,6.90
2023-02-01T12:31:24.907Z,6.92
2023-02-01T12:34:18.036Z,6.95
2023-02-01T12:36:54.128Z,6.99
2023-02-01T12:39:26.547Z,7.01
2023-02-01T12:42:02.706Z,6.95
2023-02-01T12:44:44.498Z,6.87
2023-02-01T12:47:22.625Z,6.81
2023-02-01T12:50:02.594Z,6.75
2023-02-01T12:52:37.401Z,6.74
2023-02-01T12:55:18.096Z,6.75
2023-02-01T12:57:58.362Z,6.70
2023-02-01T13:00:34.919Z,6.64
2023-02-01T13:03:13.199Z,6.60
2023-02-01T13:05:56.276Z,6.60
2023-02-01T13:08:41.498Z,6.59
2023-02-01T13:11:16.106Z,6.56
2023-02-01T13:13:58.640Z,6.56
2023-02-01T13:16:42.622Z,6.52
2023-02-01T13:19:27.076Z,6.52
2023-02-01T13:22:08.738Z,6.50
2023-02-01T13:24:43.415Z,6.49
2023-02-01T13:27:14.600Z,6.47
2023-02-01T13:30:00.266Z,6.43
2023-02-01T13:33:54.736Z,6.43
2023-02-01T13:36:07.198Z,6.41
2023-02-01T13:39:00.015Z,6.40
2023-02-01T13:41:32.450Z,6.39
2023-02-01T13:44:03.932Z,6.42
2023-02-01T13:46:41.732Z,6.45
2023-02-01T13:49:22.603Z,6.47
2023-02-01T13:51:54.379Z,6.49
2023-02-01T13:54:28.482Z,6.53
2023-02-01T13:57:00.020Z,6.62
2023-02-01T14:00:09.697Z,6.66
2023-02-01T14:03:10.561Z,6.68
2023-02-01T14:06:05.853Z,6.66
2023-02-01T14:08:53.745Z,6.68
2023-02-01T14:11:50.305Z,6.72
2023-02-01T14:14:50.588Z,6.70
2023-02-01T14:17:38.002Z,6.68
2023-02-01T14:20:46.722Z,6.66
2023-02-01T14:23:24.707Z,6.64
2023-02-01T14:26:21.924Z,6.62
2023-02-01T14:28:59.722Z,6.58
2023-02-01T14:31:45.794Z,6.55
2023-02-01T14:34:19.925Z,6.51
2023-02-01T14:37:00.912Z,6.48
2023-02-01T14:39:39.588Z,6.46
2023-02-01T14:42:24.154Z,6.46
2023-02-01T14:44:59.376Z,6.44
2023-02-01T14:47:38.377Z,6.42
2023-02-01T14:50:26.989Z,6.41
2023-02-01T14:53:20.193Z,6.42
2023-02-01T14:56:04.137Z,6.40
2023-02-01T14:58:41.911Z,6.38
2023-02-01T15:01:19.811Z,6.37
2023-02-01T15:03:56.587Z,6.35
2023-02-01T15:06:31.381Z,6.33
2023-02-01T15:09:03.014Z,6.31
2023-02-01T15:11:32.790Z,6.30
2023-02-01T15:14:01.652Z,6.28
2023-02-01T15:16:55.931Z,6.24
2023-02-01T15:19:26.346Z,6.22
2023-02-01T15:21:59.223Z,6.22
2023-02-01T15:24:29.472Z,6.23
2023-02-01T15:27:06.225Z,6.21
2023-02-01T15:29:35.026Z,6.22
2023-02-01T15:32:05.836Z,6.20
2023-02-01T15:34:48.863Z,6.19
2023-02-01T15:37:19.579Z,6.19
2023-02-01T15:40:08.898Z,6.18
2023-02-01T15:42:49.174Z,6.15
2023-02-01T15:45:19.799Z,6.14
2023-02-01T15:47:50.291Z,6.14
2023-02-01T15:50:22.347Z,6.11
2023-02-01T15:52:56.754Z,6.11
2023-02-01T15:55:31.708Z,6.10
2023-02-01T15:58:01.865Z,6.08
2023-02-01T16:00:34.567Z,6.07
2023-02-01T16:03:05.892Z,6.07
2023-02-01T16:05:39.287Z,6.05
2023-02-01T16:08:13.863Z,6.04
2023-02-01T16:10:44.570Z,6.02
2023-02-01T16:13:14.948Z,6.01
2023-02-01T16:15:44.031Z,6.01
2023-02-01T16:18:13.471Z,6.00
2023-02-01T16:20:45.244Z,5.97
2023-02-01T16:23:13.700Z,5.95
2023-02-01T16:25:42.576Z,5.94
2023-02-01T16:28:11.169Z,5.93
2023-02-01T16:30:41.215Z,5.90
2023-02-01T16:33:18.773Z,5.88
2023-02-01T16:35:47.204Z,5.89
2023-02-01T16:38:19.553Z,5.87
2023-02-01T16:40:48.608Z,5.87
2023-02-01T16:43:18.724Z,5.84
2023-02-01T16:45:50.723Z,5.83
2023-02-01T16:48:23.511Z,5.81
2023-02-01T16:50:54.997Z,5.79
2023-02-01T16:53:24.548Z,5.76
2023-02-01T16:55:53.335Z,5.75
2023-02-01T16:58:22.545Z,5.72
2023-02-01T17:00:54.572Z,5.70
2023-02-01T17:03:23.825Z,5.69
2023-02-01T17:05:54.032Z,5.67
2023-02-01T17:08:34.742Z,5.65
2023-02-01T17:11:03.890Z,5.64
2023-02-01T17:13:32.776Z,5.61
2023-02-01T17:16:05.475Z,5.60
2023-02-01T17:18:36.104Z,5.59
2023-02-01T17:21:06.686Z,5.59
2023-02-01T17:23:35.163Z,5.57
2023-02-01T17:26:03.576Z,5.56
2023-02-01T17:28:32.192Z,5.55
2023-02-01T17:31:02.857Z,5.55
2023-02-01T17:33:36.204Z,5.52
2023-02-01T17:36:06.899Z,5.53
2023-02-01T17:38:35.647Z,5.52
2023-02-01T17:41:04.153Z,5.51
2023-02-01T17:43:32.650Z,5.49
2023-02-01T17:46:05.134Z,5.50
2023-02-01T17:48:33.555Z,5.49
2023-02-01T17:51:02.562Z,5.50
2023-02-01T17:53:31.496Z,5.49
2023-02-01T17:55:59.842Z,5.48
2023-02-01T17:58:33.407Z,5.48
2023-02-01T18:01:03.517Z,5.48
2023-02-01T18:03:33.034Z,5.47
2023-02-01T18:06:01.891Z,5.48
2023-02-01T18:08:33.373Z,5.48
2023-02-01T18:11:02.844Z,5.48
2023-02-01T18:13:32.967Z,5.47
2023-02-01T18:16:02.119Z,5.47
2023-02-01T18:18:34.150Z,5.49
2023-02-01T18:21:02.680Z,5.48
2023-02-01T18:23:31.155Z,5.49
2023-02-01T18:26:01.214Z,5.50
2023-02-01T18:28:30.997Z,5.50
2023-02-01T18:31:03.168Z,5.51
2023-02-01T18:33:32.906Z,5.51
2023-02-01T18:36:01.412Z,5.52
2023-02-01T18:38:31.397Z,5.52
2023-02-01T18:41:05.136Z,5.52
2023-02-01T18:43:33.552Z,5.52
2023-02-01T18:46:01.936Z,5.52
2023-02-01T18:48:32.356Z,5.52
2023-02-01T18:51:02.073Z,5.51
2023-02-01T18:53:32.050Z,5.51
2023-02-01T18:56:02.494Z,5.50
2023-02-01T18:58:31.959Z,5.50
2023-02-01T19:01:08.837Z,5.50
2023-02-01T19:03:42.611Z,5.50
2023-02-01T19:06:14.143Z,5.51
2023-02-01T19:08:42.612Z,5.51
2023-02-01T19:11:11.334Z,5.51
2023-02-01T19:13:41.277Z,5.52
2023-02-01T19:16:10.427Z,5.52
2023-02-01T19:18:40.903Z,5.51
2023-02-01T19:21:11.086Z,5.50
2023-02-01T19:23:44.289Z,5.50
2023-02-01T19:26:22.872Z,5.50
2023-02-01T19:28:51.233Z,5.50
2023-02-01T19:31:19.669Z,5.48
2023-02-01T19:33:49.916Z,5.47
2023-02-01T19:36:18.680Z,5.46
2023-02-01T19:38:47.846Z,5.44
2023-02-01T19:41:16.211Z,5.46
2023-02-01T19:43:45.027Z,5.48
2023-02-01T19:46:13.968Z,5.49
2023-02-01T19:48:42.760Z,5.49
2023-02-01T19:51:22.495Z,5.47
2023-02-01T19:53:51.000Z,5.48
2023-02-01T19:56:19.627Z,5.49
2023-02-01T19:58:48.099Z,5.49
2023-02-01T20:01:15.651Z,5.49
2023-02-01T20:03:44.035Z,5.48
2023-02-01T20:06:12.676Z,5.49
2023-02-01T20:08:42.751Z,5.48
2023-02-01T20:11:11.692Z,5.49
2023-02-01T20:13:40.173Z,5.47
2023-02-01T20:16:08.598Z,5.46
2023-02-01T20:18:38.950Z,5.46
2023-02-01T20:21:07.426Z,5.48
2023-02-01T20:23:36.830Z,5.48
2023-02-01T20:26:09.153Z,5.49
2023-02-01T20:28:44.226Z,5.48
2023-02-01T20:31:12.769Z,5.48
2023-02-01T20:33:41.087Z,5.46
2023-02-01T20:36:10.800Z,5.48
2023-02-01T20:38:39.145Z,5.48
2023-02-01T20:41:10.220Z,5.49
2023-02-01T20:43:38.568Z,5.51
2023-02-01T20:46:08.910Z,5.50
2023-02-01T20:48:37.408Z,5.50
2023-02-01T20:51:06.058Z,5.50
2023-02-01T20:53:34.395Z,5.51
2023-02-01T20:56:02.887Z,5.49
2023-02-01T20:58:32.697Z,5.49
2023-02-01T21:01:01.413Z,5.50
2023-02-01T21:03:30.116Z,5.49
2023-02-01T21:06:00.637Z,5.48
2023-02-01T21:08:30.359Z,5.49
2023-02-01T21:11:00.743Z,5.48
2023-02-01T21:13:31.452Z,5.47
2023-02-01T21:16:01.429Z,5.45
2023-02-01T21:18:31.533Z,5.43
2023-02-01T21:21:05.555Z,5.39
2023-02-01T21:23:44.980Z,5.41
2023-02-01T21:26:19.079Z,5.41
2023-02-01T21:28:47.962Z,5.42
2023-02-01T21:31:21.005Z,5.41
2023-02-01T21:33:50.452Z,5.41
2023-02-01T21:36:19.921Z,5.41
2023-02-01T21:38:49.989Z,5.40
2023-02-01T21:41:36.395Z,5.36
2023-02-01T21:44:05.289Z,5.31
2023-02-01T21:46:35.136Z,5.27
2023-02-01T21:49:06.311Z,5.25
2023-02-01T21:51:38.049Z,5.23
2023-02-01T21:54:07.105Z,5.22
2023-02-01T21:56:36.045Z,5.21
2023-02-01T21:59:05.057Z,5.20
2023-02-01T22:01:34.969Z,5.20
2023-02-01T22:04:03.415Z,5.21
2023-02-01T22:06:33.939Z,5.22
2023-02-01T22:09:03.082Z,5.23
2023-02-01T22:11:31.895Z,5.24
2023-02-01T22:14:00.556Z,5.25
2023-02-01T22:16:31.569Z,5.27
2023-02-01T22:19:01.466Z,5.29
2023-02-01T22:21:30.533Z,5.29
2023-02-01T22:24:00.050Z,5.29
2023-02-01T22:26:29.319Z,5.31
2023-02-01T22:28:57.843Z,5.30
2023-02-01T22:31:26.323Z,5.29
2023-02-01T22:33:55.292Z,5.27
2023-02-01T22:36:25.861Z,5.26
2023-02-01T22:38:54.661Z,5.23
2023-02-01T22:41:22.951Z,5.22
2023-02-01T22:43:51.436Z,5.19
2023-02-01T22:46:22.711Z,5.19
2023-02-01T22:48:51.069Z,5.17
2023-02-01T22:51:21.274Z,5.17
2023-02-01T22:53:57.066Z,5.13
2023-02-01T22:56:27.731Z,5.08
2023-02-01T22:58:57.703Z,5.06
2023-02-01T23:01:26.496Z,5.02
2023-02-01T23:04:00.697Z,4.95
2023-02-01T23:06:29.477Z,4.91
2023-02-01T23:09:01.352Z,4.85
2023-02-01T23:11:30.193Z,4.83
2023-02-01T23:13:58.595Z,4.79
2023-02-01T23:16:26.967Z,4.77
2023-02-01T23:18:56.582Z,4.76
2023-02-01T23:21:25.067Z,4.73
2023-02-01T23:23:55.495Z,4.72
2023-02-01T23:26:27.290Z,4.67
2023-02-01T23:28:56.774Z,4.64
2023-02-01T23:31:26.541Z,4.63
2023-02-01T23:33:56.512Z,4.61
2023-02-01T23:36:26.675Z,4.59
2023-02-01T23:38:55.737Z,4.57
2023-02-01T23:41:27.489Z,4.56
2023-02-01T23:43:57.754Z,4.56
2023-02-01T23:46:27.416Z,4.53
2023-02-01T23:48:56.099Z,4.52
2023-02-01T23:51:25.305Z,4.51
2023-02-01T23:53:54.621Z,4.52
2023-02-01T23:56:26.266Z,4.51
2023-02-01T23:58:56.751Z,4.50
